createdAt,value
2018-03-04T00:00:58.054Z,5.40
2018-03-04T00:03:30.425Z,5.40
2018-03-04T00:06:04.646Z,5.50
2018-03-04T00:08:39.877Z,5.50
2018-03-04T00:11:12.655Z,5.60
2018-03-04T00:13:45.705Z,5.60
2018-03-04T00:16:21.395Z,5.60
2018-03-04T00:18:57.035Z,5.50
2018-03-04T00:21:29.625Z,5.50
2018-03-04T00:24:04.238Z,5.50
2018-03-04T00:26:35.765Z,5.60
2018-03-04T00:29:07.865Z,5.60
2018-03-04T00:31:39.105Z,5.60
2018-03-04T00:34:10.354Z,5.60
2018-03-04T00:36:45.735Z,5.60
2018-03-04T00:39:21.035Z,5.50
2018-03-04T00:41:53.605Z,5.50
2018-03-04T00:44:25.366Z,5.40
2018-03-04T00:47:01.515Z,5.40
2018-03-04T00:49:33.486Z,5.20
2018-03-04T00:52:07.485Z,5.10
2018-03-04T00:54:44.735Z,5.10
2018-03-04T00:57:24.015Z,5.10
2018-03-04T00:59:58.365Z,5.00
2018-03-04T01:02:29.505Z,5.00
2018-03-04T01:05:02.589Z,5.00
2018-03-04T01:07:36.286Z,5.00
2018-03-04T01:10:17.065Z,5.20
2018-03-04T01:12:50.355Z,5.20
2018-03-04T01:15:24.434Z,5.20
2018-03-04T01:17:58.466Z,5.30
2018-03-04T01:20:37.265Z,5.30
2018-03-04T01:23:09.564Z,5.30
2018-03-04T01:25:40.274Z,5.30
2018-03-04T01:28:14.635Z,5.30
2018-03-04T01:30:49.825Z,5.30
2018-03-04T01:33:26.295Z,5.30
2018-03-04T01:36:03.165Z,5.30
2018-03-04T01:38:40.254Z,5.40
2018-03-04T01:41:15.696Z,5.40
2018-03-04T01:43:48.744Z,5.40
2018-03-04T01:46:25.865Z,5.40
2018-03-04T01:48:59.355Z,5.50
2018-03-04T01:51:42.696Z,5.50
2018-03-04T01:54:14.885Z,5.60
2018-03-04T01:56:47.124Z,5.60
2018-03-04T01:59:18.795Z,5.60
2018-03-04T02:01:52.304Z,5.60
2018-03-04T02:04:32.025Z,5.50
2018-03-04T02:07:07.085Z,5.50
2018-03-04T02:09:42.904Z,5.50
2018-03-04T02:12:15.395Z,5.60
2018-03-04T02:14:46.865Z,5.60
2018-03-04T02:17:19.824Z,5.70
2018-03-04T02:19:51.505Z,5.70
2018-03-04T02:22:23.124Z,5.80
2018-03-04T02:24:55.795Z,5.90
2018-03-04T02:27:32.274Z,5.90
2018-03-04T02:30:12.666Z,6.00
2018-03-04T02:32:44.096Z,5.90
2018-03-04T02:35:23.216Z,5.80
2018-03-04T02:37:56.505Z,5.80
2018-03-04T02:40:29.115Z,5.80
2018-03-04T02:43:02.724Z,5.70
2018-03-04T02:45:35.085Z,5.60
2018-03-04T02:48:08.866Z,5.60
2018-03-04T02:50:40.714Z,5.50
2018-03-04T02:53:13.199Z,5.50
2018-03-04T02:55:51.615Z,5.50
2018-03-04T02:58:23.357Z,5.60
2018-03-04T03:00:56.659Z,5.60
2018-03-04T03:03:31.586Z,5.70
2018-03-04T03:06:03.552Z,5.70
2018-03-04T03:08:35.914Z,5.80
2018-03-04T03:11:09.415Z,5.70
2018-03-04T03:13:43.635Z,5.70
2018-03-04T03:16:19.684Z,5.70
2018-03-04T03:18:56.725Z,5.70
2018-03-04T03:21:30.265Z,5.70
2018-03-04T03:24:05.435Z,5.80
2018-03-04T03:26:37.675Z,5.60
2018-03-04T03:29:10.186Z,5.70
2018-03-04T03:31:43.656Z,5.70
2018-03-04T03:34:17.555Z,5.70
2018-03-04T03:36:49.005Z,5.60
2018-03-04T03:39:24.245Z,5.70
2018-03-04T03:41:55.772Z,5.70
2018-03-04T03:44:28.215Z,5.70
2018-03-04T03:47:00.165Z,5.70
2018-03-04T03:49:35.368Z,5.80
2018-03-04T03:52:10.195Z,5.70
2018-03-04T03:54:44.194Z,5.70
2018-03-04T03:57:20.255Z,5.70
2018-03-04T03:59:52.734Z,5.80
2018-03-04T04:02:28.515Z,5.80
2018-03-04T04:05:00.244Z,5.80
2018-03-04T04:07:34.565Z,5.80
2018-03-04T04:10:07.544Z,5.80
2018-03-04T04:12:39.794Z,5.80
2018-03-04T04:15:14.125Z,5.80
2018-03-04T04:17:46.524Z,5.60
2018-03-04T04:20:18.734Z,5.70
2018-03-04T04:22:52.724Z,5.60
2018-03-04T04:25:24.945Z,5.60
2018-03-04T04:27:59.254Z,5.70
2018-03-04T04:30:40.724Z,5.60
2018-03-04T04:33:12.335Z,5.50
2018-03-04T04:35:45.324Z,5.50
2018-03-04T04:38:18.614Z,5.50
2018-03-04T04:40:50.993Z,5.50
2018-03-04T04:43:24.755Z,5.40
2018-03-04T04:45:56.354Z,5.30
2018-03-04T04:48:31.864Z,5.30
2018-03-04T04:51:05.045Z,5.20
2018-03-04T04:53:38.445Z,5.20
2018-03-04T04:56:09.074Z,5.20
2018-03-04T04:58:42.675Z,5.20
2018-03-04T05:01:18.734Z,5.20
2018-03-04T05:03:52.265Z,5.20
2018-03-04T05:06:24.905Z,5.20
2018-03-04T05:08:57.094Z,5.10
2018-03-04T05:11:28.784Z,5.10
2018-03-04T05:14:03.147Z,5.10
2018-03-04T05:16:36.129Z,5.10
2018-03-04T05:19:09.456Z,5.10
2018-03-04T05:21:41.489Z,5.10
2018-03-04T05:24:14.887Z,5.10
2018-03-04T05:26:46.736Z,5.20
2018-03-04T05:29:20.645Z,5.10
2018-03-04T05:31:51.487Z,5.10
2018-03-04T05:34:27.035Z,5.10
2018-03-04T05:36:59.295Z,5.00
2018-03-04T05:39:35.392Z,4.90
2018-03-04T05:42:08.236Z,4.80
2018-03-04T05:44:42.046Z,4.80
2018-03-04T05:47:15.746Z,4.70
2018-03-04T05:49:54.265Z,4.70
2018-03-04T05:52:30.125Z,4.70
2018-03-04T05:55:02.496Z,3.70
2018-03-04T05:57:34.747Z,4.60
2018-03-04T06:00:06.758Z,4.50
2018-03-04T06:02:38.806Z,4.40
2018-03-04T06:05:11.565Z,4.40
2018-03-04T06:07:42.815Z,4.40
2018-03-04T06:10:24.325Z,4.20
2018-03-04T06:12:57.896Z,4.10
2018-03-04T06:15:31.185Z,4.00
2018-03-04T06:18:01.756Z,4.00
2018-03-04T06:20:38.996Z,4.00
2018-03-04T06:23:11.376Z,4.00
2018-03-04T06:25:44.456Z,4.10
2018-03-04T06:28:16.806Z,4.10
2018-03-04T06:30:52.745Z,4.10
2018-03-04T06:33:25.071Z,4.10
2018-03-04T06:35:58.875Z,4.10
2018-03-04T06:38:32.865Z,4.10
2018-03-04T06:41:06.674Z,4.10
2018-03-04T06:43:41.096Z,4.10
2018-03-04T06:46:13.158Z,4.10
2018-03-04T06:48:44.196Z,4.20
2018-03-04T06:51:15.436Z,4.20
2018-03-04T06:53:47.652Z,4.30
2018-03-04T06:56:20.195Z,4.30
2018-03-04T06:58:57.576Z,4.40
2018-03-04T07:01:30.255Z,4.50
2018-03-04T07:04:01.916Z,4.50
2018-03-04T07:06:34.086Z,4.50
2018-03-04T07:09:08.195Z,4.50
2018-03-04T07:11:39.535Z,6.00
2018-03-04T07:14:11.916Z,4.60
2018-03-04T07:16:51.445Z,4.60
2018-03-04T07:19:24.955Z,4.60
2018-03-04T07:21:58.174Z,4.50
2018-03-04T07:24:32.555Z,4.60
2018-03-04T07:27:04.516Z,4.70
2018-03-04T07:29:40.604Z,4.80
2018-03-04T07:32:13.866Z,4.80
2018-03-04T07:34:48.755Z,4.90
2018-03-04T07:37:27.415Z,4.90
2018-03-04T07:39:59.075Z,5.00
2018-03-04T07:42:29.706Z,5.00
2018-03-04T07:45:09.483Z,5.20
2018-03-04T07:47:42.525Z,5.30
2018-03-04T07:50:14.599Z,5.40
2018-03-04T07:52:47.067Z,5.50
2018-03-04T07:55:20.495Z,5.60
2018-03-04T07:58:01.025Z,5.70
2018-03-04T08:00:32.894Z,5.70
2018-03-04T08:03:04.825Z,5.70
2018-03-04T08:05:36.506Z,5.80
2018-03-04T08:08:09.216Z,5.90
2018-03-04T08:10:41.185Z,6.00
2018-03-04T08:13:13.146Z,6.00
2018-03-04T08:15:48.146Z,6.10
2018-03-04T08:18:19.625Z,6.10
2018-03-04T08:20:53.496Z,6.10
2018-03-04T08:23:25.975Z,6.20
2018-03-04T08:26:04.194Z,6.20
2018-03-04T08:28:40.170Z,6.40
2018-03-04T08:31:11.995Z,6.40
2018-03-04T08:33:43.956Z,6.60
2018-03-04T08:36:17.966Z,6.60
2018-03-04T08:38:50.235Z,6.70
2018-03-04T08:41:26.296Z,6.70
2018-03-04T08:43:58.766Z,6.80
2018-03-04T08:46:30.526Z,6.80
2018-03-04T08:49:08.736Z,7.00
2018-03-04T08:51:47.765Z,7.10
2018-03-04T08:54:20.134Z,7.10
2018-03-04T08:56:52.707Z,7.10
2018-03-04T08:59:30.416Z,7.30
2018-03-04T09:02:02.365Z,7.30
2018-03-04T09:04:37.296Z,7.30
2018-03-04T09:07:10.586Z,7.40
2018-03-04T09:09:51.261Z,7.50
2018-03-04T09:12:25.106Z,7.40
2018-03-04T09:14:59.485Z,7.60
2018-03-04T09:17:32.606Z,7.70
2018-03-04T09:20:07.196Z,7.90
2018-03-04T09:22:43.555Z,8.00
2018-03-04T09:25:15.415Z,8.20
2018-03-04T09:27:47.314Z,8.30
2018-03-04T09:30:21.185Z,8.30
2018-03-04T09:32:52.535Z,8.40
2018-03-04T09:35:25.206Z,8.40
2018-03-04T09:37:59.525Z,8.40
2018-03-04T09:40:31.696Z,8.50
2018-03-04T09:43:03.969Z,8.70
2018-03-04T09:45:42.874Z,8.80
2018-03-04T09:48:15.965Z,8.80
2018-03-04T09:50:48.648Z,8.90
2018-03-04T09:53:22.096Z,9.00
2018-03-04T09:55:53.666Z,9.10
2018-03-04T09:58:23.925Z,9.10
2018-03-04T10:00:56.327Z,9.20
2018-03-04T10:03:29.998Z,9.30
2018-03-04T10:06:01.987Z,9.40
2018-03-04T10:08:35.765Z,9.60
2018-03-04T10:11:12.166Z,9.70
2018-03-04T10:13:46.226Z,9.70
2018-03-04T10:16:19.788Z,9.80
2018-03-04T10:18:52.656Z,9.90
2018-03-04T10:21:23.056Z,9.90
2018-03-04T10:23:54.825Z,10.30
2018-03-04T10:26:29.745Z,10.50
2018-03-04T10:29:01.087Z,10.60
2018-03-04T10:31:35.795Z,10.80
2018-03-04T10:34:13.305Z,11.00
2018-03-04T10:36:45.256Z,11.10
2018-03-04T10:39:19.714Z,11.30
2018-03-04T10:41:51.135Z,11.40
2018-03-04T10:44:22.985Z,11.60
2018-03-04T10:46:54.755Z,11.50
2018-03-04T10:49:27.426Z,11.70
2018-03-04T10:51:59.285Z,11.80
2018-03-04T10:54:30.426Z,12.00
2018-03-04T10:57:07.786Z,12.10
2018-03-04T10:59:41.316Z,12.10
2018-03-04T11:02:18.736Z,12.50
2018-03-04T11:04:51.076Z,12.60
2018-03-04T11:07:26.026Z,12.40
2018-03-04T11:09:57.976Z,12.00
2018-03-04T11:12:33.316Z,11.70
2018-03-04T11:15:06.786Z,11.70
2018-03-04T11:17:38.686Z,12.10
2018-03-04T11:20:10.026Z,12.50
2018-03-04T11:22:41.856Z,12.70
2018-03-04T11:25:18.346Z,12.90
2018-03-04T11:27:51.644Z,13.00
2018-03-04T11:30:22.676Z,12.90
2018-03-04T11:32:54.376Z,12.90
2018-03-04T11:35:30.810Z,13.00
2018-03-04T11:38:03.105Z,13.00
2018-03-04T11:40:35.344Z,12.80
2018-03-04T11:43:08.757Z,12.90
2018-03-04T11:45:41.665Z,13.20
2018-03-04T11:48:13.276Z,13.20
2018-03-04T11:50:47.895Z,13.80
2018-03-04T11:53:18.116Z,14.00
2018-03-04T11:55:52.458Z,14.30
2018-03-04T11:58:26.346Z,14.50
2018-03-04T12:00:57.295Z,14.50
2018-03-04T12:03:28.645Z,14.70
2018-03-04T12:06:02.439Z,14.80
2018-03-04T12:08:36.836Z,15.00
2018-03-04T12:11:10.147Z,15.20
2018-03-04T12:13:42.407Z,14.90
2018-03-04T12:16:14.605Z,14.50
2018-03-04T12:18:50.226Z,14.30
2018-03-04T12:21:21.364Z,14.30
2018-03-04T12:23:53.237Z,14.70
2018-03-04T12:26:26.754Z,15.10
2018-03-04T12:29:01.375Z,15.40
2018-03-04T12:31:32.935Z,15.50
2018-03-04T12:34:05.075Z,16.00
2018-03-04T12:36:46.667Z,16.00
2018-03-04T12:39:19.137Z,16.00
2018-03-04T12:41:54.266Z,16.40
2018-03-04T12:44:30.945Z,16.30
2018-03-04T12:47:03.425Z,16.60
2018-03-04T12:49:35.185Z,17.10
2018-03-04T12:52:07.034Z,17.00
2018-03-04T12:54:40.635Z,17.00
2018-03-04T12:57:12.005Z,17.00
2018-03-04T12:59:44.246Z,16.00
2018-03-04T13:02:17.038Z,15.60
2018-03-04T13:04:48.790Z,15.40
2018-03-04T13:07:26.805Z,14.90
2018-03-04T13:10:00.429Z,14.60
2018-03-04T13:12:37.508Z,14.00
2018-03-04T13:15:12.705Z,13.60
2018-03-04T13:17:50.296Z,13.30
2018-03-04T13:20:22.056Z,12.80
2018-03-04T13:22:52.275Z,12.80
2018-03-04T13:25:24.768Z,11.80
2018-03-04T13:27:57.695Z,11.50
2018-03-04T13:30:28.097Z,11.50
2018-03-04T13:33:02.077Z,11.30
2018-03-04T13:35:39.566Z,11.20
2018-03-04T13:38:11.936Z,11.10
2018-03-04T13:40:45.816Z,11.00
2018-03-04T13:43:17.295Z,10.90
2018-03-04T13:45:49.154Z,10.70
2018-03-04T13:48:20.616Z,10.50
2018-03-04T13:50:53.855Z,10.50
2018-03-04T13:53:31.495Z,10.40
2018-03-04T13:56:06.936Z,10.30
2018-03-04T13:58:37.285Z,10.30
2018-03-04T14:01:08.505Z,10.30
2018-03-04T14:03:40.225Z,10.30
2018-03-04T14:06:15.870Z,10.20
2018-03-04T14:08:49.506Z,10.00
2018-03-04T14:11:21.166Z,10.00
2018-03-04T14:13:54.836Z,9.90
2018-03-04T14:16:26.518Z,10.00
2018-03-04T14:18:59.268Z,9.90
2018-03-04T14:21:31.366Z,9.80
2018-03-04T14:24:06.816Z,9.80
2018-03-04T14:26:40.456Z,9.80
2018-03-04T14:29:15.694Z,9.90
2018-03-04T14:31:45.845Z,9.90
2018-03-04T14:34:17.526Z,9.80
2018-03-04T14:36:48.785Z,9.80
2018-03-04T14:39:20.826Z,9.90
2018-03-04T14:41:56.186Z,10.00
2018-03-04T14:44:28.446Z,10.00
2018-03-04T14:47:03.275Z,10.00
2018-03-04T14:49:34.009Z,10.00
2018-03-04T14:52:06.275Z,10.00
2018-03-04T14:54:40.505Z,10.10
2018-03-04T14:57:12.385Z,10.00
2018-03-04T14:59:46.045Z,10.10
2018-03-04T15:02:20.805Z,9.80
2018-03-04T15:04:54.376Z,10.00
2018-03-04T15:07:26.745Z,10.00
2018-03-04T15:09:57.586Z,10.00
2018-03-04T15:12:35.602Z,10.10
2018-03-04T15:15:06.416Z,10.10
2018-03-04T15:17:37.865Z,10.20
2018-03-04T15:20:09.625Z,10.30
2018-03-04T15:22:43.325Z,10.20
2018-03-04T15:25:15.878Z,10.30
2018-03-04T15:27:48.336Z,10.30
2018-03-04T15:30:24.166Z,10.30
2018-03-04T15:32:57.255Z,10.40
2018-03-04T15:35:32.845Z,10.50
2018-03-04T15:38:05.344Z,10.50
2018-03-04T15:40:39.567Z,10.50
2018-03-04T15:43:12.376Z,10.50
2018-03-04T15:45:44.005Z,10.50
2018-03-04T15:48:15.685Z,10.60
2018-03-04T15:53:24.875Z,10.70
2018-03-04T15:56:01.365Z,10.70
2018-03-04T15:58:33.255Z,10.60
2018-03-04T16:01:05.177Z,10.60
2018-03-04T16:03:41.156Z,10.60
2018-03-04T16:06:15.556Z,10.50
2018-03-04T16:08:47.455Z,10.50
2018-03-04T16:11:18.808Z,10.50
2018-03-04T16:13:51.036Z,10.60
2018-03-04T16:16:25.145Z,10.60
2018-03-04T16:19:01.205Z,10.50
2018-03-04T16:21:33.165Z,10.60
2018-03-04T16:24:04.436Z,10.60
2018-03-04T16:26:39.445Z,10.60
2018-03-04T16:29:11.005Z,10.70
2018-03-04T16:31:48.086Z,10.60
2018-03-04T16:34:23.236Z,10.70
2018-03-04T16:36:56.861Z,10.70
2018-03-04T16:39:28.406Z,10.50
2018-03-04T16:42:02.615Z,10.60
2018-03-04T16:44:34.345Z,10.60
2018-03-04T16:47:05.736Z,10.60
2018-03-04T16:49:39.397Z,10.60
2018-03-04T16:52:12.324Z,10.50
2018-03-04T16:54:45.367Z,10.50
2018-03-04T16:57:16.506Z,10.50
2018-03-04T16:59:49.185Z,10.50
2018-03-04T17:02:22.476Z,10.50
2018-03-04T17:04:58.135Z,10.40
2018-03-04T17:07:29.615Z,10.40
2018-03-04T17:10:03.386Z,10.40
2018-03-04T17:12:36.565Z,10.40
2018-03-04T17:15:14.485Z,10.30
2018-03-04T17:17:45.916Z,10.30
2018-03-04T17:20:20.236Z,10.20
2018-03-04T17:22:56.095Z,10.20
2018-03-04T17:25:28.085Z,10.20
2018-03-04T17:28:03.216Z,10.20
2018-03-04T17:30:36.876Z,10.10
2018-03-04T17:33:12.855Z,10.00
2018-03-04T17:35:44.847Z,10.00
2018-03-04T17:38:17.934Z,10.00
2018-03-04T17:40:50.405Z,10.00
2018-03-04T17:43:25.525Z,10.00
2018-03-04T17:46:00.136Z,10.00
2018-03-04T17:48:32.726Z,9.90
2018-03-04T17:51:04.156Z,9.90
2018-03-04T17:53:36.026Z,9.80
2018-03-04T17:56:07.265Z,9.80
2018-03-04T17:58:39.256Z,9.60
2018-03-04T18:01:11.399Z,9.50
2018-03-04T18:03:43.856Z,9.40
2018-03-04T18:06:16.875Z,9.40
2018-03-04T18:08:49.453Z,9.40
2018-03-04T18:11:23.745Z,9.30
2018-03-04T18:13:55.297Z,9.30
2018-03-04T18:16:28.886Z,9.30
2018-03-04T18:19:03.516Z,9.30
2018-03-04T18:21:37.636Z,9.30
2018-03-04T18:24:08.615Z,9.30
2018-03-04T18:26:42.856Z,9.30
2018-03-04T18:29:17.316Z,9.30
2018-03-04T18:31:51.948Z,9.20
2018-03-04T18:34:31.202Z,9.20
2018-03-04T18:37:04.596Z,9.20
2018-03-04T18:39:39.886Z,9.20
2018-03-04T18:42:12.685Z,9.10
2018-03-04T18:44:46.696Z,9.10
2018-03-04T18:47:24.496Z,9.10
2018-03-04T18:49:56.665Z,9.10
2018-03-04T18:52:34.156Z,9.10
2018-03-04T18:55:06.355Z,9.00
2018-03-04T18:57:43.715Z,9.00
2018-03-04T19:00:14.445Z,9.00
2018-03-04T19:02:46.756Z,9.00
2018-03-04T19:05:19.186Z,9.00
2018-03-04T19:07:51.856Z,9.00
2018-03-04T19:10:23.876Z,8.90
2018-03-04T19:12:54.965Z,8.90
2018-03-04T19:15:38.131Z,8.90
2018-03-04T19:18:12.436Z,8.80
2018-03-04T19:20:44.375Z,8.80
2018-03-04T19:23:20.835Z,8.80
2018-03-04T19:25:54.136Z,8.90
2018-03-04T19:28:27.645Z,8.90
2018-03-04T19:31:02.908Z,8.80
2018-03-04T19:33:35.654Z,8.80
2018-03-04T19:36:07.617Z,8.80
2018-03-04T19:38:40.635Z,8.90
2018-03-04T19:41:13.605Z,9.00
2018-03-04T19:43:48.738Z,9.00
2018-03-04T19:46:19.886Z,9.00
2018-03-04T19:48:53.096Z,9.00
2018-03-04T19:51:26.485Z,9.00
2018-03-04T19:54:00.495Z,9.00
2018-03-04T19:56:35.033Z,9.00
2018-03-04T19:59:10.626Z,9.00
2018-03-04T20:01:48.555Z,9.00
2018-03-04T20:04:22.476Z,8.90
2018-03-04T20:06:54.333Z,8.90
2018-03-04T20:09:36.495Z,9.00
2018-03-04T20:12:07.336Z,8.90
2018-03-04T20:14:41.646Z,8.90
2018-03-04T20:17:17.896Z,8.90
2018-03-04T20:19:50.616Z,8.80
2018-03-04T20:22:29.856Z,8.80
2018-03-04T20:25:02.496Z,8.70
2018-03-04T20:27:36.816Z,8.60
2018-03-04T20:30:11.276Z,8.40
2018-03-04T20:32:43.766Z,8.40
2018-03-04T20:35:23.666Z,8.40
2018-03-04T20:37:57.497Z,8.40
2018-03-04T20:40:28.726Z,8.50
2018-03-04T20:42:59.766Z,8.40
2018-03-04T20:45:30.887Z,8.30
2018-03-04T20:48:10.546Z,8.30
2018-03-04T20:50:42.187Z,8.30
2018-03-04T20:53:15.525Z,8.40
2018-03-04T20:55:48.366Z,8.40
2018-03-04T20:58:20.257Z,8.40
2018-03-04T21:00:51.955Z,8.50
2018-03-04T21:03:23.910Z,8.50
2018-03-04T21:05:55.026Z,8.50
2018-03-04T21:08:27.936Z,8.50
2018-03-04T21:10:59.316Z,8.50
2018-03-04T21:13:31.176Z,8.50
2018-03-04T21:16:02.896Z,8.50
2018-03-04T21:18:36.018Z,8.40
2018-03-04T21:21:09.355Z,8.40
2018-03-04T21:23:41.787Z,8.50
2018-03-04T21:26:14.469Z,8.40
2018-03-04T21:28:47.146Z,8.40
2018-03-04T21:31:19.087Z,8.40
2018-03-04T21:33:51.385Z,8.40
2018-03-04T21:36:23.604Z,8.30
2018-03-04T21:38:59.386Z,8.20
2018-03-04T21:41:31.610Z,8.30
2018-03-04T21:44:11.896Z,8.30
2018-03-04T21:46:45.217Z,8.20
2018-03-04T21:49:17.286Z,8.30
2018-03-04T21:51:49.586Z,8.40
2018-03-04T21:54:28.265Z,8.40
2018-03-04T21:57:00.029Z,8.50
2018-03-04T21:59:38.886Z,8.60
2018-03-04T22:02:12.966Z,8.60
2018-03-04T22:04:45.437Z,8.70
2018-03-04T22:07:18.835Z,8.70
2018-03-04T22:09:52.115Z,8.70
2018-03-04T22:12:24.286Z,8.70
2018-03-04T22:14:57.377Z,8.80
2018-03-04T22:17:31.296Z,8.70
2018-03-04T22:20:04.375Z,8.70
2018-03-04T22:22:41.347Z,8.70
2018-03-04T22:25:20.588Z,7.60
2018-03-04T22:27:53.568Z,8.60
2018-03-04T22:30:28.595Z,8.70
2018-03-04T22:33:02.405Z,8.70
2018-03-04T22:35:34.275Z,8.60
2018-03-04T22:38:07.056Z,8.60
2018-03-04T22:40:40.435Z,8.50
2018-03-04T22:43:12.516Z,8.50
2018-03-04T22:45:46.906Z,8.60
2018-03-04T22:48:20.425Z,8.60
2018-03-04T22:50:53.235Z,8.70
2018-03-04T22:53:27.736Z,8.70
2018-03-04T22:56:02.935Z,8.60
2018-03-04T22:58:37.386Z,8.50
2018-03-04T23:01:10.576Z,8.40
2018-03-04T23:03:47.695Z,8.50
2018-03-04T23:06:26.917Z,8.50
2018-03-04T23:09:02.545Z,8.50
2018-03-04T23:11:33.496Z,8.60
2018-03-04T23:14:04.558Z,8.50
2018-03-04T23:16:36.985Z,8.60
2018-03-04T23:19:10.026Z,8.60
2018-03-04T23:21:42.905Z,8.60
2018-03-04T23:24:16.096Z,8.50
2018-03-04T23:26:48.316Z,8.50
2018-03-04T23:29:19.926Z,8.50
2018-03-04T23:31:52.249Z,8.60
2018-03-04T23:34:26.456Z,8.60
2018-03-04T23:36:57.497Z,7.80
2018-03-04T23:39:29.365Z,8.50
2018-03-04T23:42:01.226Z,8.50
2018-03-04T23:44:34.106Z,8.40
2018-03-04T23:47:09.136Z,8.50
2018-03-04T23:49:43.455Z,8.40
2018-03-04T23:52:17.486Z,8.50
2018-03-04T23:54:51.476Z,8.50
2018-03-04T23:57:23.926Z,8.50
2018-03-04T23:59:58.475Z,8.50
